Time;durP1;ratioP1;P1;durP2;ratioP2;P2;SDS_P1;SDS_P2;PMS_P1;PMS_P2;Temp;Humidity;BMP_temperature;BMP_pressure;BME280_temperature;BME280_humidity;BME280_pressure;Samples;Min_cycle;Max_cycle;Signal;HPM_P1;HPM_P2
2022/07/08 00:02:01;;;;;;;1.70;1.23;;;14.60;99.90;;;;;;5075782;28;20444;-88
2022/07/08 00:04:28;;;;;;;1.57;0.97;;;14.60;99.90;;;;;;5068880;28;20479;-88
2022/07/08 00:06:55;;;;;;;1.03;0.93;;;14.60;99.90;;;;;;5076893;28;20551;-88
2022/07/08 00:09:22;;;;;;;1.10;1.00;;;14.50;99.90;;;;;;5066026;28;21445;-87
2022/07/08 00:11:52;;;;;;;1.70;1.20;;;14.40;99.90;;;;;;5074653;28;20501;-91
2022/07/08 00:14:19;;;;;;;0.93;0.83;;;14.30;99.90;;;;;;5070864;28;20505;-89
2022/07/08 00:16:46;;;;;;;1.63;0.90;;;14.30;99.90;;;;;;5070579;28;20471;-89
2022/07/08 00:19:15;;;;;;;0.90;0.90;;;14.30;99.90;;;;;;5069108;28;20470;-89
2022/07/08 00:21:43;;;;;;;1.40;1.30;;;14.30;99.90;;;;;;5079100;28;20937;-90
2022/07/08 00:24:10;;;;;;;1.53;1.20;;;14.40;99.90;;;;;;5075271;28;20466;-89
2022/07/08 00:26:37;;;;;;;1.30;1.20;;;14.30;99.90;;;;;;5076576;28;20524;-91
2022/07/08 00:29:06;;;;;;;3.03;1.00;;;14.30;99.90;;;;;;5075191;28;20770;-89
2022/07/08 00:31:34;;;;;;;1.37;0.80;;;14.30;99.90;;;;;;5081160;28;20477;-89
2022/07/08 00:34:01;;;;;;;0.60;0.40;;;14.30;99.90;;;;;;5071500;28;20526;-90
2022/07/08 00:36:28;;;;;;;0.53;0.40;;;14.10;99.90;;;;;;5069739;28;20833;-92
2022/07/08 00:38:55;;;;;;;0.50;0.50;;;14.10;99.90;;;;;;5080440;28;21016;-91
2022/07/08 00:41:22;;;;;;;0.50;0.50;;;14.10;99.90;;;;;;5081394;28;21035;-89
2022/07/08 00:43:49;;;;;;;3.40;0.93;;;14.10;99.90;;;;;;5080068;28;20464;-89
2022/07/08 00:46:19;;;;;;;0.60;0.60;;;14.10;99.90;;;;;;5079221;28;20968;-91
2022/07/08 00:48:46;;;;;;;0.83;0.80;;;14.10;99.90;;;;;;5076456;28;20812;-91
2022/07/08 00:51:14;;;;;;;1.07;0.97;;;14.10;99.90;;;;;;5081321;28;21032;-91
2022/07/08 00:53:45;;;;;;;0.87;0.80;;;14.20;99.90;;;;;;5074692;28;20477;-91
2022/07/08 00:56:13;;;;;;;1.53;1.17;;;14.20;99.90;;;;;;5072714;28;20523;-92
2022/07/08 00:58:41;;;;;;;1.53;0.93;;;14.20;99.90;;;;;;5073975;28;20471;-90
2022/07/08 01:01:08;;;;;;;1.60;1.13;;;14.30;99.90;;;;;;5068562;28;20451;-91
2022/07/08 01:03:36;;;;;;;3.90;1.20;;;14.20;99.90;;;;;;5083614;28;20500;-91
2022/07/08 01:06:04;;;;;;;1.63;1.53;;;14.30;99.90;;;;;;5084194;28;20483;-92
2022/07/08 01:08:31;;;;;;;1.20;1.00;;;14.20;99.90;;;;;;5098070;28;20446;-92
2022/07/08 01:10:58;;;;;;;1.00;0.90;;;14.30;99.90;;;;;;5077017;28;20846;-92
2022/07/08 01:13:26;;;;;;;1.93;1.73;;;14.30;99.90;;;;;;5074361;28;20538;-92
2022/07/08 01:15:54;;;;;;;1.97;1.10;;;14.30;99.90;;;;;;5065818;28;20957;-91
2022/07/08 01:18:22;;;;;;;2.37;2.13;;;14.30;99.90;;;;;;5074968;28;20945;-91
2022/07/08 01:20:51;;;;;;;1.37;1.27;;;14.30;99.90;;;;;;5070281;28;20519;-91
2022/07/08 01:23:18;;;;;;;2.90;2.40;;;14.30;99.90;;;;;;5076876;28;20463;-90
2022/07/08 01:25:47;;;;;;;1.70;1.30;;;14.30;99.90;;;;;;5071092;28;20882;-91
2022/07/08 01:28:14;;;;;;;2.70;2.10;;;14.30;99.90;;;;;;5068060;28;20792;-90
2022/07/08 01:30:42;;;;;;;1.83;1.43;;;14.30;99.90;;;;;;5076569;28;20913;-91
2022/07/08 01:33:09;;;;;;;2.37;2.27;;;14.30;99.90;;;;;;5063179;28;20502;-90
2022/07/08 01:35:36;;;;;;;1.90;1.80;;;14.30;99.90;;;;;;5069177;28;20898;-90
2022/07/08 01:38:05;;;;;;;2.30;2.00;;;14.30;99.90;;;;;;5063166;28;20932;-90
2022/07/08 01:40:32;;;;;;;3.63;1.97;;;14.30;99.90;;;;;;5070892;28;20937;-89
2022/07/08 01:42:59;;;;;;;3.77;2.90;;;14.30;99.90;;;;;;5073206;28;21208;-89
2022/07/08 01:45:26;;;;;;;2.33;2.10;;;14.30;99.90;;;;;;5069062;28;20483;-89
2022/07/08 01:47:53;;;;;;;4.20;2.40;;;14.30;99.90;;;;;;5071549;28;20684;-89
2022/07/08 01:50:20;;;;;;;4.40;2.53;;;14.30;99.90;;;;;;5076717;28;20498;-89
2022/07/08 01:52:47;;;;;;;1.93;1.73;;;14.30;99.90;;;;;;5073947;28;20910;-89
2022/07/08 01:55:16;;;;;;;9.03;2.30;;;14.30;99.90;;;;;;5068172;28;20458;-89
2022/07/08 01:57:43;;;;;;;2.33;2.13;;;14.30;99.90;;;;;;5070298;28;20560;-88
2022/07/08 02:00:11;;;;;;;2.53;2.37;;;14.40;99.90;;;;;;5079259;28;20443;-89
2022/07/08 02:02:38;;;;;;;3.30;3.10;;;14.30;99.90;;;;;;5071469;28;20460;-89
2022/07/08 02:05:06;;;;;;;3.00;2.67;;;14.30;99.90;;;;;;5070645;28;20980;-89
2022/07/08 02:07:34;;;;;;;2.50;2.30;;;14.40;99.90;;;;;;5073070;28;20459;-89
2022/07/08 02:10:01;;;;;;;4.27;2.33;;;14.40;99.90;;;;;;5067634;28;20490;-89
2022/07/08 02:12:28;;;;;;;2.50;1.90;;;14.30;99.90;;;;;;5064978;28;20443;-88
2022/07/08 02:15:01;;;;;;;2.97;2.10;;;14.40;99.90;;;;;;5072804;28;20468;-88
2022/07/08 02:17:31;;;;;;;3.30;3.00;;;14.40;99.90;;;;;;5075722;28;20971;-89
2022/07/08 02:19:58;;;;;;;2.33;2.13;;;14.40;99.90;;;;;;5078514;28;20515;-89
2022/07/08 02:22:25;;;;;;;5.40;3.07;;;14.40;99.90;;;;;;5074261;28;20916;-89
2022/07/08 02:24:53;;;;;;;3.60;3.30;;;14.40;99.90;;;;;;5074395;28;20523;-89
2022/07/08 02:27:20;;;;;;;2.80;2.57;;;14.40;99.90;;;;;;5076802;28;20520;-89
2022/07/08 02:29:49;;;;;;;5.67;3.17;;;14.40;99.90;;;;;;5069354;28;20461;-89
2022/07/08 02:32:16;;;;;;;5.17;3.50;;;14.40;99.90;;;;;;5063966;28;20450;-89
2022/07/08 02:34:43;;;;;;;9.20;2.80;;;14.40;99.90;;;;;;5070057;28;20468;-89
2022/07/08 02:37:10;;;;;;;2.77;2.60;;;14.40;99.90;;;;;;5077718;28;20494;-89
2022/07/08 02:39:37;;;;;;;3.60;3.30;;;14.40;99.90;;;;;;5066539;28;20974;-89
2022/07/08 02:42:05;;;;;;;6.63;3.07;;;14.40;99.90;;;;;;5062647;28;20459;-89
2022/07/08 02:44:32;;;;;;;2.67;2.57;;;14.40;99.90;;;;;;5063478;28;20704;-89
2022/07/08 02:47:01;;;;;;;8.23;3.97;;;14.40;99.90;;;;;;5069892;28;20487;-89
2022/07/08 02:49:28;;;;;;;3.47;2.90;;;14.40;99.90;;;;;;5075226;28;20535;-89
2022/07/08 02:51:55;;;;;;;4.60;3.60;;;14.40;99.90;;;;;;5072975;28;20458;-88
2022/07/08 02:54:22;;;;;;;5.17;4.67;;;14.40;99.90;;;;;;5062433;28;20459;-89
2022/07/08 02:56:49;;;;;;;3.53;3.23;;;14.40;99.90;;;;;;5065507;28;20530;-88
2022/07/08 02:59:15;;;;;;;2.60;2.40;;;14.40;99.90;;;;;;5071201;28;20462;-88
2022/07/08 03:01:42;;;;;;;4.47;4.07;;;14.40;99.90;;;;;;5073606;28;20466;-89
2022/07/08 03:04:11;;;;;;;4.07;3.23;;;14.40;99.90;;;;;;5063214;28;20474;-88
2022/07/08 03:06:38;;;;;;;8.93;2.83;;;14.40;99.90;;;;;;5078322;28;20493;-89
2022/07/08 03:09:05;;;;;;;4.17;3.50;;;14.40;99.90;;;;;;5064387;28;20970;-88
2022/07/08 03:11:32;;;;;;;3.20;2.80;;;14.40;99.90;;;;;;5063685;28;20482;-89
2022/07/08 03:13:59;;;;;;;2.93;2.30;;;14.40;99.90;;;;;;5070781;28;20798;-88
2022/07/08 03:16:26;;;;;;;3.20;3.00;;;14.40;99.90;;;;;;5062546;28;20887;-89
2022/07/08 03:18:53;;;;;;;2.97;2.60;;;14.40;99.90;;;;;;5070240;28;20919;-88
2022/07/08 03:21:21;;;;;;;4.50;2.97;;;14.40;99.90;;;;;;5067992;28;20976;-88
2022/07/08 03:23:48;;;;;;;2.00;1.90;;;14.30;99.90;;;;;;5072188;28;20527;-90
2022/07/08 03:26:15;;;;;;;2.73;2.53;;;14.30;99.90;;;;;;5074992;28;20494;-90
2022/07/08 03:28:42;;;;;;;3.10;2.77;;;14.30;99.90;;;;;;5085628;28;20491;-90
2022/07/08 03:31:09;;;;;;;5.10;2.77;;;14.30;99.90;;;;;;5074435;28;20504;-88
2022/07/08 03:33:36;;;;;;;2.37;2.17;;;14.30;99.90;;;;;;5078540;28;20831;-91
2022/07/08 03:36:03;;;;;;;2.40;2.20;;;14.20;99.90;;;;;;5071940;28;20450;-93
2022/07/08 03:38:32;;;;;;;2.33;2.10;;;14.20;99.90;;;;;;5081568;28;20547;-92
2022/07/08 03:43:43;;;;;;;4.37;1.83;;;14.20;99.90;;;;;;5083763;28;20521;-90
2022/07/08 03:46:10;;;;;;;1.70;1.60;;;14.20;99.90;;;;;;5084524;28;21024;-90
2022/07/08 03:48:37;;;;;;;1.37;1.23;;;14.20;99.90;;;;;;5087149;28;20889;-91
2022/07/08 03:51:04;;;;;;;1.80;1.43;;;14.10;99.90;;;;;;5074809;28;20559;-93
2022/07/08 03:53:33;;;;;;;1.53;1.13;;;14.20;99.90;;;;;;5083140;28;20727;-92
2022/07/08 03:56:00;;;;;;;0.80;0.70;;;14.10;99.90;;;;;;5078167;28;20851;-90
2022/07/08 03:58:27;;;;;;;1.30;1.20;;;14.10;99.90;;;;;;5082568;28;20648;-89
2022/07/08 04:00:53;;;;;;;1.47;1.20;;;14.10;99.90;;;;;;5083600;28;20927;-89
2022/07/08 04:03:20;;;;;;;1.33;1.23;;;14.10;99.90;;;;;;5081090;28;21166;-89
2022/07/08 04:05:48;;;;;;;1.60;1.50;;;14.00;99.90;;;;;;5084549;28;20477;-90
2022/07/08 04:08:15;;;;;;;5.10;1.87;;;14.10;99.90;;;;;;5080957;28;20535;-90
2022/07/08 04:10:43;;;;;;;2.03;1.83;;;14.10;99.90;;;;;;5085089;28;20890;-90
2022/07/08 04:13:10;;;;;;;1.50;1.40;;;14.10;99.90;;;;;;5076057;28;20457;-92
2022/07/08 04:15:37;;;;;;;2.87;1.27;;;14.10;99.90;;;;;;5088200;28;20474;-90
2022/07/08 04:18:04;;;;;;;3.23;1.10;;;14.10;99.90;;;;;;5089448;28;20461;-91
2022/07/08 04:20:31;;;;;;;1.53;1.37;;;14.10;99.90;;;;;;5091324;28;20506;-91
2022/07/08 04:22:58;;;;;;;2.73;0.83;;;14.00;99.90;;;;;;5094506;28;20470;-94
2022/07/08 04:25:25;;;;;;;1.30;1.20;;;14.10;99.90;;;;;;5077132;28;21167;-94
2022/07/08 04:27:54;;;;;;;1.90;1.47;;;14.10;99.90;;;;;;5081152;28;20915;-93
2022/07/08 04:30:21;;;;;;;1.17;1.07;;;14.10;99.90;;;;;;5071075;28;20546;-93
2022/07/08 04:32:48;;;;;;;0.80;0.80;;;14.10;99.90;;;;;;5078286;28;20554;-92
2022/07/08 04:35:15;;;;;;;1.17;1.07;;;14.10;99.90;;;;;;5076507;28;21077;-92
2022/07/08 04:37:42;;;;;;;1.67;1.10;;;14.10;99.90;;;;;;5070015;28;20490;-91
2022/07/08 04:40:10;;;;;;;2.23;1.23;;;14.10;99.90;;;;;;5074729;28;20774;-91
2022/07/08 04:42:37;;;;;;;2.40;1.00;;;14.10;99.90;;;;;;5080904;28;20477;-92
2022/07/08 04:45:07;;;;;;;2.17;1.10;;;14.10;99.90;;;;;;5069950;28;20921;-91
2022/07/08 04:47:34;;;;;;;0.90;0.70;;;14.10;99.90;;;;;;5069213;28;20854;-90
2022/07/08 04:50:01;;;;;;;1.10;0.70;;;14.10;99.90;;;;;;5082388;28;20475;-91
2022/07/08 04:52:29;;;;;;;0.60;0.60;;;14.00;99.90;;;;;;5085031;28;20444;-91
2022/07/08 04:54:56;;;;;;;0.53;0.50;;;14.00;99.90;;;;;;5076853;28;20837;-91
2022/07/08 04:57:23;;;;;;;0.50;0.50;;;14.00;99.90;;;;;;5075947;28;21128;-91
2022/07/08 04:59:50;;;;;;;2.03;0.53;;;13.90;99.90;;;;;;5082326;28;20917;-92
2022/07/08 05:02:18;;;;;;;1.80;0.50;;;13.80;99.90;;;;;;5072066;28;20542;-92
2022/07/08 05:04:45;;;;;;;0.90;0.67;;;13.80;99.90;;;;;;5081639;28;20522;-91
2022/07/08 05:07:12;;;;;;;0.60;0.40;;;13.80;99.90;;;;;;5082629;28;20489;-90
2022/07/08 05:09:39;;;;;;;0.60;0.47;;;13.80;99.90;;;;;;5081275;28;20526;-89
2022/07/08 05:12:07;;;;;;;0.40;0.37;;;13.80;99.90;;;;;;5077546;28;20480;-91
2022/07/08 05:14:34;;;;;;;5.60;0.40;;;13.80;99.90;;;;;;5082873;28;20467;-90
2022/07/08 05:17:01;;;;;;;1.60;0.40;;;13.80;99.90;;;;;;5082018;28;20474;-89
2022/07/08 05:19:29;;;;;;;0.97;0.60;;;13.80;99.90;;;;;;5072585;28;20501;-90
2022/07/08 05:21:56;;;;;;;0.70;0.40;;;13.80;99.90;;;;;;5083751;28;20467;-90
2022/07/08 05:24:23;;;;;;;0.40;0.40;;;13.80;99.90;;;;;;5073651;28;20494;-89
2022/07/08 05:26:50;;;;;;;0.40;0.30;;;13.90;99.90;;;;;;5080918;28;21268;-89
2022/07/08 05:29:17;;;;;;;0.40;0.40;;;14.00;99.90;;;;;;5079351;28;20466;-90
2022/07/08 05:31:44;;;;;;;0.40;0.40;;;14.10;99.90;;;;;;5082488;28;20497;-89
2022/07/08 05:34:11;;;;;;;0.50;0.40;;;14.20;99.90;;;;;;5072959;28;21034;-90
2022/07/08 05:36:39;;;;;;;0.40;0.40;;;14.20;99.90;;;;;;5070427;28;21134;-89
2022/07/08 05:39:06;;;;;;;0.50;0.40;;;14.20;99.90;;;;;;5072102;28;20494;-89
2022/07/08 05:41:33;;;;;;;0.40;0.40;;;14.10;99.90;;;;;;5079727;28;20507;-88
2022/07/08 05:44:00;;;;;;;0.50;0.50;;;14.00;99.90;;;;;;5068098;28;20465;-88
2022/07/08 05:46:27;;;;;;;0.40;0.40;;;14.00;99.90;;;;;;5063278;28;20490;-90
2022/07/08 05:48:54;;;;;;;0.40;0.40;;;14.00;99.90;;;;;;5069172;28;21006;-89
2022/07/08 05:51:21;;;;;;;0.60;0.50;;;13.90;99.90;;;;;;5072207;28;21067;-88
2022/07/08 05:53:52;;;;;;;0.70;0.63;;;13.90;99.90;;;;;;5071884;28;21081;-89
2022/07/08 05:56:19;;;;;;;0.40;0.30;;;13.90;99.90;;;;;;5067950;28;20906;-89
2022/07/08 05:58:46;;;;;;;0.93;0.53;;;13.80;99.90;;;;;;5073073;28;20497;-88
2022/07/08 06:01:13;;;;;;;0.60;0.57;;;13.80;99.90;;;;;;5068828;28;20529;-88
2022/07/08 06:03:40;;;;;;;0.63;0.60;;;13.70;99.90;;;;;;5069747;28;20494;-88
2022/07/08 06:06:07;;;;;;;0.60;0.50;;;13.70;99.90;;;;;;5066705;28;20522;-88
2022/07/08 06:08:34;;;;;;;0.60;0.40;;;13.70;99.90;;;;;;5076988;28;20530;-89
2022/07/08 06:11:04;;;;;;;0.70;0.70;;;13.70;99.90;;;;;;5071641;28;20550;-89
2022/07/08 06:13:31;;;;;;;1.43;0.80;;;13.60;99.90;;;;;;5065332;28;20465;-87
2022/07/08 06:15:58;;;;;;;6.53;0.90;;;13.70;99.90;;;;;;5070622;28;20473;-88
2022/07/08 06:18:25;;;;;;;0.80;0.80;;;13.80;99.90;;;;;;5069554;28;20460;-88
2022/07/08 06:20:52;;;;;;;1.00;0.80;;;13.90;99.90;;;;;;5076585;28;20467;-87
2022/07/08 06:23:19;;;;;;;1.67;0.50;;;14.00;99.90;;;;;;5068916;28;20571;-87
2022/07/08 06:25:46;;;;;;;0.57;0.50;;;13.90;99.90;;;;;;5077571;28;20918;-88
2022/07/08 06:28:15;;;;;;;0.70;0.60;;;14.00;99.90;;;;;;5070923;28;20493;-89
2022/07/08 06:30:42;;;;;;;7.27;1.40;;;14.10;99.90;;;;;;5073803;28;20465;-88
2022/07/08 06:33:09;;;;;;;1.50;0.83;;;14.20;99.90;;;;;;5072134;28;20458;-87
2022/07/08 06:35:36;;;;;;;1.07;0.97;;;14.30;99.90;;;;;;5073282;28;20474;-88
2022/07/08 06:38:03;;;;;;;0.80;0.70;;;14.50;99.90;;;;;;5071774;28;20454;-87
2022/07/08 06:40:30;;;;;;;1.00;0.90;;;14.40;99.90;;;;;;5074232;28;20497;-88
2022/07/08 06:42:57;;;;;;;0.77;0.70;;;14.30;99.90;;;;;;5068833;28;20470;-88
2022/07/08 06:45:26;;;;;;;1.00;0.70;;;14.20;99.90;;;;;;5072069;28;20473;-87
2022/07/08 06:47:53;;;;;;;1.97;0.80;;;14.20;99.90;;;;;;5065648;28;20497;-87
2022/07/08 06:50:20;;;;;;;1.13;1.00;;;14.30;99.90;;;;;;5068660;28;20513;-87
2022/07/08 06:52:47;;;;;;;1.00;1.00;;;14.40;99.90;;;;;;5069006;28;20541;-87
2022/07/08 06:55:14;;;;;;;0.70;0.70;;;14.50;99.90;;;;;;5073522;28;20507;-87
2022/07/08 06:57:41;;;;;;;0.93;0.67;;;14.40;99.90;;;;;;5065651;28;20515;-86
2022/07/08 07:00:10;;;;;;;1.00;0.90;;;14.60;99.90;;;;;;5066798;28;21214;-87
2022/07/08 07:02:38;;;;;;;1.03;0.80;;;14.60;99.90;;;;;;5071213;28;20474;-87
2022/07/08 07:05:07;;;;;;;0.70;0.70;;;14.80;99.90;;;;;;5068504;28;20528;-87
2022/07/08 07:07:34;;;;;;;2.00;1.03;;;15.10;99.90;;;;;;5069620;28;20490;-87
2022/07/08 07:10:01;;;;;;;1.00;0.70;;;15.10;99.90;;;;;;5065647;28;20463;-86
2022/07/08 07:12:28;;;;;;;1.10;0.80;;;15.20;99.90;;;;;;5070783;28;20470;-87
2022/07/08 07:14:55;;;;;;;0.97;0.60;;;15.00;99.90;;;;;;5074350;28;20458;-86
2022/07/08 07:17:23;;;;;;;3.13;0.70;;;14.90;99.90;;;;;;5072823;28;20507;-86
2022/07/08 07:19:51;;;;;;;1.13;0.90;;;14.80;99.90;;;;;;5073147;28;20472;-86
2022/07/08 07:22:18;;;;;;;1.50;0.80;;;14.80;99.90;;;;;;5072044;28;20523;-87
2022/07/08 07:24:45;;;;;;;0.70;0.67;;;14.70;99.90;;;;;;5085424;28;20457;-87
2022/07/08 07:27:12;;;;;;;0.70;0.60;;;14.60;99.90;;;;;;5090827;28;20505;-87
2022/07/08 07:29:39;;;;;;;2.30;0.83;;;14.60;99.90;;;;;;5082637;28;20634;-87
2022/07/08 07:32:07;;;;;;;1.97;0.67;;;14.50;99.90;;;;;;5072962;28;20563;-87
2022/07/08 07:34:34;;;;;;;1.73;0.87;;;14.60;99.90;;;;;;5080140;28;20524;-87
2022/07/08 07:37:02;;;;;;;1.30;0.70;;;14.70;99.90;;;;;;5076715;28;20469;-87
2022/07/08 07:39:30;;;;;;;1.70;0.80;;;14.80;99.90;;;;;;5078540;28;20981;-87
2022/07/08 07:41:56;;;;;;;2.03;0.90;;;14.90;99.90;;;;;;5066079;28;20475;-87
2022/07/08 07:44:23;;;;;;;1.00;0.60;;;14.90;99.90;;;;;;5069838;28;20523;-87
2022/07/08 07:46:50;;;;;;;1.00;0.70;;;14.80;99.90;;;;;;5072066;28;20495;-87
2022/07/08 07:49:17;;;;;;;2.80;0.90;;;15.00;99.90;;;;;;5069081;28;20551;-87
2022/07/08 07:51:44;;;;;;;0.80;0.70;;;15.20;99.90;;;;;;5066970;28;20488;-86
2022/07/08 07:54:13;;;;;;;0.90;0.90;;;15.40;99.90;;;;;;5062392;28;20473;-87
2022/07/08 07:56:40;;;;;;;1.27;0.70;;;15.70;99.90;;;;;;5068541;28;20470;-87
2022/07/08 07:59:07;;;;;;;1.57;0.60;;;15.70;99.90;;;;;;5068493;28;20520;-87
2022/07/08 08:01:34;;;;;;;2.10;0.70;;;15.50;99.90;;;;;;5064477;28;20484;-87
2022/07/08 08:04:01;;;;;;;1.10;0.60;;;15.70;99.90;;;;;;5068325;28;20462;-87
2022/07/08 08:06:28;;;;;;;0.50;0.50;;;15.50;99.90;;;;;;5072212;28;20467;-87
2022/07/08 08:08:56;;;;;;;0.80;0.70;;;15.50;99.90;;;;;;5078272;28;20505;-87
2022/07/08 08:11:24;;;;;;;2.20;0.90;;;15.90;99.90;;;;;;5075405;28;20479;-87
2022/07/08 08:13:51;;;;;;;0.60;0.60;;;16.50;99.90;;;;;;5078823;28;21041;-88
2022/07/08 08:16:18;;;;;;;0.53;0.53;;;16.60;99.90;;;;;;5073973;28;20470;-88
2022/07/08 08:18:45;;;;;;;2.43;0.60;;;16.60;99.90;;;;;;5071058;28;20471;-88
2022/07/08 08:21:12;;;;;;;0.60;0.60;;;16.50;99.90;;;;;;5068585;28;20527;-88
2022/07/08 08:23:39;;;;;;;0.77;0.57;;;16.10;99.90;;;;;;5073066;28;20537;-88
2022/07/08 08:26:06;;;;;;;1.30;0.60;;;15.80;99.90;;;;;;5075428;28;20497;-88
2022/07/08 08:28:34;;;;;;;0.60;0.50;;;15.60;99.90;;;;;;5075792;28;20497;-88
2022/07/08 08:31:01;;;;;;;0.70;0.60;;;15.50;99.90;;;;;;5078557;28;20572;-88
2022/07/08 08:33:28;;;;;;;1.87;0.60;;;15.80;99.90;;;;;;5076355;28;20927;-87
2022/07/08 08:35:55;;;;;;;1.17;0.80;;;16.30;99.90;;;;;;5075982;28;20473;-89
2022/07/08 08:38:22;;;;;;;2.60;0.70;;;17.00;99.90;;;;;;5075075;28;20465;-89
2022/07/08 08:40:57;;;;;;;0.50;0.50;;;16.70;99.90;;;;;;5080364;28;20466;-89
2022/07/08 08:43:25;;;;;;;3.00;0.50;;;16.20;99.90;;;;;;5072629;28;20531;-89
2022/07/08 08:45:53;;;;;;;0.77;0.50;;;16.60;99.90;;;;;;5074473;28;20543;-89
2022/07/08 08:48:24;;;;;;;1.20;0.50;;;17.40;99.90;;;;;;5071206;28;20520;-89
2022/07/08 08:50:54;;;;;;;0.50;0.50;;;17.30;99.90;;;;;;5073356;28;20906;-88
2022/07/08 08:53:26;;;;;;;1.67;0.60;;;17.50;99.90;;;;;;5078092;28;20494;-86
2022/07/08 08:55:53;;;;;;;2.50;0.67;;;17.70;99.90;;;;;;5078332;28;20470;-86
2022/07/08 08:58:21;;;;;;;2.40;0.60;;;17.90;99.90;;;;;;5078517;28;20477;-85
2022/07/08 09:00:48;;;;;;;2.10;0.90;;;18.30;99.90;;;;;;5075948;28;20494;-85
2022/07/08 09:03:17;;;;;;;0.70;0.50;;;18.20;99.90;;;;;;5068841;28;20462;-85
2022/07/08 09:05:44;;;;;;;0.50;0.50;;;17.70;99.90;;;;;;5076286;28;20462;-85
2022/07/08 09:08:11;;;;;;;0.60;0.40;;;17.20;99.90;;;;;;5080129;28;20968;-85
2022/07/08 09:10:39;;;;;;;0.50;0.50;;;17.00;99.90;;;;;;5077998;28;20982;-85
2022/07/08 09:13:10;;;;;;;1.00;0.40;;;17.10;99.90;;;;;;5068116;28;20462;-85
2022/07/08 09:15:38;;;;;;;1.20;0.47;;;17.80;99.90;;;;;;5064768;28;20460;-86
2022/07/08 09:18:08;;;;;;;0.47;0.47;;;17.70;99.90;;;;;;5069946;28;20520;-86
2022/07/08 09:20:41;;;;;;;2.50;0.50;;;17.50;99.50;;;;;;5068880;28;20520;-86
2022/07/08 09:23:11;;;;;;;0.90;0.50;;;17.00;99.90;;;;;;5075097;28;20989;-85
2022/07/08 09:25:38;;;;;;;2.20;0.50;;;16.80;99.90;;;;;;5068645;28;20534;-85
2022/07/08 09:28:05;;;;;;;0.70;0.50;;;16.60;99.90;;;;;;5067998;28;20488;-85
2022/07/08 09:30:32;;;;;;;2.70;0.77;;;16.80;99.90;;;;;;5079898;28;20982;-85
2022/07/08 09:33:00;;;;;;;1.90;0.60;;;17.00;99.00;;;;;;5073211;28;20998;-85
2022/07/08 09:35:36;;;;;;;2.70;0.97;;;16.90;98.40;;;;;;5067518;28;20489;-85
2022/07/08 09:38:06;;;;;;;0.60;0.43;;;17.10;99.00;;;;;;5069383;28;20462;-86
2022/07/08 09:40:34;;;;;;;2.53;0.60;;;17.30;99.30;;;;;;5072424;28;20487;-85
2022/07/08 09:43:02;;;;;;;0.60;0.47;;;17.30;98.10;;;;;;5071121;28;20451;-85
2022/07/08 09:45:31;;;;;;;1.87;0.40;;;17.30;99.10;;;;;;5075253;28;20445;-86
2022/07/08 09:48:06;;;;;;;1.50;0.60;;;17.40;97.00;;;;;;5073186;28;20872;-86
2022/07/08 09:50:37;;;;;;;0.80;0.40;;;17.50;97.30;;;;;;5073313;28;20474;-86
2022/07/08 09:53:17;;;;;;;0.50;0.50;;;17.40;96.40;;;;;;5071225;28;20463;-85
2022/07/08 09:55:46;;;;;;;1.63;0.40;;;17.50;96.70;;;;;;5074575;28;20777;-87
2022/07/08 09:58:15;;;;;;;0.70;0.50;;;17.60;95.40;;;;;;5078210;28;20791;-87
2022/07/08 10:00:43;;;;;;;0.87;0.50;;;17.60;95.90;;;;;;5071538;28;20474;-86
2022/07/08 10:03:11;;;;;;;1.07;0.50;;;17.40;95.50;;;;;;5079284;28;20473;-87
2022/07/08 10:05:38;;;;;;;0.40;0.40;;;17.80;96.10;;;;;;5064825;28;20493;-87
2022/07/08 10:08:07;;;;;;;0.50;0.40;;;18.30;96.30;;;;;;5074047;28;20486;-87
2022/07/08 10:10:36;;;;;;;0.87;0.87;;;18.20;95.20;;;;;;5068992;28;20463;-87
2022/07/08 10:13:04;;;;;;;0.73;0.43;;;18.00;95.00;;;;;;5075107;28;20470;-87
2022/07/08 10:15:33;;;;;;;1.60;0.47;;;18.40;95.80;;;;;;5071902;28;21008;-87
2022/07/08 10:18:06;;;;;;;1.17;0.40;;;18.30;92.60;;;;;;5074951;28;20455;-87
2022/07/08 10:20:36;;;;;;;1.77;0.53;;;18.20;92.30;;;;;;5071127;28;20463;-87
2022/07/08 10:23:07;;;;;;;3.13;0.87;;;18.10;92.40;;;;;;5081928;28;20477;-87
2022/07/08 10:25:36;;;;;;;0.90;0.60;;;18.10;92.50;;;;;;5076822;28;21050;-87
2022/07/08 10:28:10;;;;;;;1.27;0.43;;;17.80;92.40;;;;;;5083050;28;20486;-87
2022/07/08 10:30:58;;;;;;;1.33;0.40;;;17.60;93.30;;;;;;5083818;28;20496;-86
2022/07/08 10:33:26;;;;;;;0.73;0.50;;;17.40;93.00;;;;;;5082595;28;20470;-86
2022/07/08 10:36:07;;;;;;;0.80;0.50;;;17.50;93.00;;;;;;5077528;28;20471;-87
2022/07/08 10:38:36;;;;;;;0.80;0.57;;;17.60;92.10;;;;;;5078033;28;20468;-88
2022/07/08 10:41:07;;;;;;;2.50;0.90;;;17.70;93.20;;;;;;5082029;28;21106;-87
2022/07/08 10:43:34;;;;;;;4.10;0.60;;;17.80;91.70;;;;;;5076076;28;20462;-87
2022/07/08 10:46:20;;;;;;;1.07;0.50;;;18.10;94.10;;;;;;5082095;28;20524;-87
2022/07/08 10:48:52;;;;;;;0.53;0.50;;;18.20;93.90;;;;;;5078650;28;20577;-86
2022/07/08 10:51:56;;;;;;;0.60;0.50;;;17.90;91.90;;;;;;5079219;28;20462;-87
2022/07/08 10:54:32;;;;;;;3.07;0.50;;;18.00;92.20;;;;;;5078328;28;20466;-86
2022/07/08 10:57:02;;;;;;;2.00;0.50;;;17.80;90.50;;;;;;5078456;28;20462;-87
2022/07/08 10:59:30;;;;;;;2.13;0.80;;;17.60;91.20;;;;;;5079939;28;20474;-87
2022/07/08 11:02:00;;;;;;;0.50;0.40;;;17.40;90.90;;;;;;5079465;28;20483;-87
2022/07/08 11:04:30;;;;;;;0.70;0.50;;;17.60;91.70;;;;;;5076167;28;22025;-87
2022/07/08 11:07:29;;;;;;;2.73;0.40;;;17.40;91.50;;;;;;5076198;28;20463;-86
2022/07/08 11:10:01;;;;;;;1.27;0.50;;;17.70;92.20;;;;;;5068823;28;20493;-87
2022/07/08 11:12:31;;;;;;;1.00;0.47;;;17.50;91.80;;;;;;5076221;28;20473;-86
2022/07/08 11:15:00;;;;;;;1.73;0.40;;;17.50;92.00;;;;;;5074734;28;20458;-87
2022/07/08 11:17:29;;;;;;;1.20;0.60;;;17.90;92.30;;;;;;5067054;28;20925;-88
2022/07/08 11:19:57;;;;;;;0.50;0.50;;;17.90;91.30;;;;;;5072259;28;20519;-87
2022/07/08 11:22:26;;;;;;;4.70;1.40;;;17.90;91.60;;;;;;5071309;28;20549;-87
2022/07/08 11:24:54;;;;;;;1.47;1.23;;;17.80;91.50;;;;;;5070874;28;20860;-87
2022/07/08 11:27:25;;;;;;;2.10;0.50;;;17.80;92.60;;;;;;5069692;28;20527;-87
2022/07/08 11:29:55;;;;;;;0.67;0.60;;;18.00;91.20;;;;;;5067230;28;20487;-87
2022/07/08 11:32:23;;;;;;;0.90;0.40;;;18.20;91.20;;;;;;5070393;28;21183;-85
2022/07/08 11:34:51;;;;;;;0.50;0.40;;;18.70;91.00;;;;;;5070846;28;21214;-84
2022/07/08 11:37:19;;;;;;;0.87;0.43;;;19.00;86.70;;;;;;5068819;28;20986;-84
2022/07/08 11:39:47;;;;;;;1.87;0.40;;;18.50;87.80;;;;;;5068430;28;20535;-84
2022/07/08 11:42:15;;;;;;;0.80;0.40;;;18.50;90.30;;;;;;5068465;28;20463;-84
2022/07/08 11:44:42;;;;;;;0.50;0.50;;;18.40;90.20;;;;;;5069248;28;20462;-84
2022/07/08 11:47:14;;;;;;;0.57;0.50;;;18.70;89.10;;;;;;5074977;28;20541;-85
2022/07/08 11:49:44;;;;;;;2.10;1.13;;;19.00;89.80;;;;;;5072398;28;20990;-85
2022/07/08 11:52:15;;;;;;;0.40;0.40;;;19.30;87.40;;;;;;5074813;28;21091;-85
2022/07/08 11:54:46;;;;;;;0.40;0.37;;;19.30;88.20;;;;;;5082259;28;20455;-84
2022/07/08 11:57:13;;;;;;;0.60;0.50;;;19.30;86.80;;;;;;5080850;28;20442;-85
2022/07/08 11:59:40;;;;;;;0.67;0.40;;;18.80;87.50;;;;;;5067718;28;20508;-85
2022/07/08 12:02:08;;;;;;;0.50;0.40;;;18.40;89.20;;;;;;5073364;28;20535;-85
2022/07/08 12:04:36;;;;;;;0.80;0.80;;;18.30;89.60;;;;;;5075736;28;21158;-85
2022/07/08 12:07:19;;;;;;;0.70;0.63;;;17.90;88.00;;;;;;5079968;28;20482;-85
2022/07/08 12:09:53;;;;;;;0.43;0.30;;;18.40;88.00;;;;;;5077729;28;20547;-86
2022/07/08 12:12:23;;;;;;;0.70;0.40;;;18.90;88.80;;;;;;5083670;28;20535;-86
2022/07/08 12:14:50;;;;;;;1.00;0.40;;;18.70;86.80;;;;;;5083128;28;20561;-86
2022/07/08 12:17:24;;;;;;;2.80;0.50;;;19.00;87.80;;;;;;5082781;28;20466;-85
2022/07/08 12:19:53;;;;;;;1.80;0.73;;;19.20;86.60;;;;;;5083167;28;20902;-86
2022/07/08 12:22:47;;;;;;;1.13;0.60;;;19.40;84.20;;;;;;5077812;28;20514;-87
2022/07/08 12:25:15;;;;;;;0.90;0.40;;;19.60;84.30;;;;;;5072403;28;20450;-85
2022/07/08 12:27:43;;;;;;;3.13;0.60;;;20.00;85.40;;;;;;5082444;28;20478;-86
2022/07/08 12:30:11;;;;;;;2.53;0.40;;;20.20;85.20;;;;;;5085394;28;20523;-86
2022/07/08 12:32:39;;;;;;;0.80;0.50;;;19.90;83.00;;;;;;5084052;28;20452;-85
2022/07/08 12:35:09;;;;;;;1.07;0.97;;;19.90;86.60;;;;;;5081740;28;20939;-86
2022/07/08 12:37:37;;;;;;;1.73;0.40;;;19.60;85.60;;;;;;5081009;28;20956;-86
2022/07/08 12:40:17;;;;;;;2.20;0.50;;;19.40;83.70;;;;;;5083483;28;20498;-86
2022/07/08 12:43:02;;;;;;;0.80;0.40;;;19.80;84.20;;;;;;5083909;28;20490;-86
2022/07/08 12:45:30;;;;;;;0.80;0.70;;;20.30;85.00;;;;;;5080854;28;20484;-86
2022/07/08 12:47:57;;;;;;;0.80;0.33;;;20.80;83.30;;;;;;5074100;28;20477;-86
2022/07/08 12:50:26;;;;;;;0.40;0.30;;;20.60;80.40;;;;;;5078422;28;20478;-86
2022/07/08 12:52:53;;;;;;;2.80;0.70;;;19.80;77.90;;;;;;5081368;28;20481;-85
2022/07/08 12:55:21;;;;;;;0.60;0.40;;;19.60;78.60;;;;;;5083731;28;20486;-86
2022/07/08 12:57:48;;;;;;;4.70;0.50;;;19.70;81.00;;;;;;5079959;28;20450;-85